sensor_id;sensor_type;location;lat;lon;timestamp;pressure;altitude;pressure_sealevel;temperature;humidity
66547;BME280;53400;50.364;14.874;2023-03-24T00:00:17;97949.28;;;12.61;75.92
66547;BME280;53400;50.364;14.874;2023-03-24T00:03:03;97950.38;;;12.60;76.27
66547;BME280;53400;50.364;14.874;2023-03-24T00:05:29;97950.38;;;12.55;76.53
66547;BME280;53400;50.364;14.874;2023-03-24T00:07:55;97937.25;;;12.38;77.60
66547;BME280;53400;50.364;14.874;2023-03-24T00:10:21;97930.63;;;12.15;78.57
66547;BME280;53400;50.364;14.874;2023-03-24T00:12:48;97933.88;;;11.97;79.97
66547;BME280;53400;50.364;14.874;2023-03-24T00:15:18;97927.19;;;11.99;80.29
66547;BME280;53400;50.364;14.874;2023-03-24T00:17:44;97930.63;;;12.10;79.70
66547;BME280;53400;50.364;14.874;2023-03-24T00:20:13;97931.97;;;12.18;79.45
66547;BME280;53400;50.364;14.874;2023-03-24T00:22:40;97924.41;;;12.30;78.84
66547;BME280;53400;50.364;14.874;2023-03-24T00:25:08;97926.03;;;12.26;79.22
66547;BME280;53400;50.364;14.874;2023-03-24T00:27:34;97922.78;;;12.39;78.79
66547;BME280;53400;50.364;14.874;2023-03-24T00:30:04;97917.16;;;12.30;79.36
66547;BME280;53400;50.364;14.874;2023-03-24T00:32:32;97913.97;;;12.18;80.44
66547;BME280;53400;50.364;14.874;2023-03-24T00:35:01;97911.00;;;12.30;80.53
66547;BME280;53400;50.364;14.874;2023-03-24T00:37:28;97907.31;;;12.00;82.19
66547;BME280;53400;50.364;14.874;2023-03-24T00:39:54;97903.81;;;11.89;83.51
66547;BME280;53400;50.364;14.874;2023-03-24T00:42:19;97905.88;;;12.33;81.68
66547;BME280;53400;50.364;14.874;2023-03-24T00:44:46;97903.16;;;12.38;81.57
66547;BME280;53400;50.364;14.874;2023-03-24T00:47:12;97903.69;;;12.35;81.34
66547;BME280;53400;50.364;14.874;2023-03-24T00:49:40;97903.13;;;12.49;80.50
66547;BME280;53400;50.364;14.874;2023-03-24T00:52:14;97894.25;;;12.53;80.04
66547;BME280;53400;50.364;14.874;2023-03-24T00:54:43;97886.25;;;12.38;81.21
66547;BME280;53400;50.364;14.874;2023-03-24T00:57:11;97889.22;;;12.36;80.77
66547;BME280;53400;50.364;14.874;2023-03-24T00:59:37;97883.84;;;12.31;81.14
66547;BME280;53400;50.364;14.874;2023-03-24T01:02:07;97888.97;;;12.28;81.97
66547;BME280;53400;50.364;14.874;2023-03-24T01:04:36;97878.50;;;12.26;83.08
66547;BME280;53400;50.364;14.874;2023-03-24T01:07:04;97881.78;;;12.13;82.95
66547;BME280;53400;50.364;14.874;2023-03-24T01:09:30;97877.78;;;12.00;84.06
66547;BME280;53400;50.364;14.874;2023-03-24T01:11:56;97879.66;;;12.00;84.07
66547;BME280;53400;50.364;14.874;2023-03-24T01:14:23;97867.81;;;12.16;83.36
66547;BME280;53400;50.364;14.874;2023-03-24T01:16:48;97870.81;;;11.99;84.90
66547;BME280;53400;50.364;14.874;2023-03-24T01:19:15;97869.41;;;12.17;83.95
66547;BME280;53400;50.364;14.874;2023-03-24T01:21:41;97861.94;;;12.04;84.98
66547;BME280;53400;50.364;14.874;2023-03-24T01:24:09;97864.63;;;12.04;84.99
66547;BME280;53400;50.364;14.874;2023-03-24T01:26:35;97870.53;;;12.06;85.59
66547;BME280;53400;50.364;14.874;2023-03-24T01:29:01;97867.78;;;12.21;85.32
66547;BME280;53400;50.364;14.874;2023-03-24T01:31:27;97866.16;;;12.25;84.19
66547;BME280;53400;50.364;14.874;2023-03-24T01:33:53;97868.69;;;11.76;89.83
66547;BME280;53400;50.364;14.874;2023-03-24T01:36:18;97860.09;;;11.53;90.28
66547;BME280;53400;50.364;14.874;2023-03-24T01:38:44;97864.94;;;11.46;90.33
66547;BME280;53400;50.364;14.874;2023-03-24T01:41:12;97859.03;;;11.29;91.76
66547;BME280;53400;50.364;14.874;2023-03-24T01:43:38;97860.13;;;11.17;91.70
66547;BME280;53400;50.364;14.874;2023-03-24T01:46:13;97853.97;;;11.12;91.48
66547;BME280;53400;50.364;14.874;2023-03-24T01:48:43;97853.97;;;11.17;92.25
66547;BME280;53400;50.364;14.874;2023-03-24T01:51:13;97859.81;;;10.88;93.77
66547;BME280;53400;50.364;14.874;2023-03-24T01:53:44;97859.81;;;10.98;93.77
66547;BME280;53400;50.364;14.874;2023-03-24T01:56:13;97851.25;;;11.07;93.59
66547;BME280;53400;50.364;14.874;2023-03-24T01:58:44;97839.75;;;11.11;93.42
66547;BME280;53400;50.364;14.874;2023-03-24T02:01:13;97843.50;;;11.05;93.05
66547;BME280;53400;50.364;14.874;2023-03-24T02:03:40;97843.78;;;11.09;93.81
66547;BME280;53400;50.364;14.874;2023-03-24T02:06:07;97838.97;;;11.21;92.86
66547;BME280;53400;50.364;14.874;2023-03-24T02:08:37;97841.09;;;11.44;91.30
66547;BME280;53400;50.364;14.874;2023-03-24T02:11:05;97846.16;;;11.61;89.55
66547;BME280;53400;50.364;14.874;2023-03-24T02:13:33;97834.09;;;11.59;89.29
66547;BME280;53400;50.364;14.874;2023-03-24T02:16:10;97826.06;;;11.54;90.22
66547;BME280;53400;50.364;14.874;2023-03-24T02:18:44;97827.66;;;11.55;90.75
66547;BME280;53400;50.364;14.874;2023-03-24T02:21:38;97829.81;;;11.58;88.87
66547;BME280;53400;50.364;14.874;2023-03-24T02:24:42;97823.09;;;11.50;88.71
66547;BME280;53400;50.364;14.874;2023-03-24T02:27:28;97815.88;;;11.56;88.45
66547;BME280;53400;50.364;14.874;2023-03-24T02:30:18;97817.47;;;11.46;87.61
66547;BME280;53400;50.364;14.874;2023-03-24T02:36:10;97807.31;;;11.43;89.83
66547;BME280;53400;50.364;14.874;2023-03-24T02:41:41;97802.22;;;11.32;90.41
66547;BME280;53400;50.364;14.874;2023-03-24T02:44:18;97792.84;;;11.34;90.36
66547;BME280;53400;50.364;14.874;2023-03-24T02:46:45;97795.25;;;11.46;90.62
66547;BME280;53400;50.364;14.874;2023-03-24T02:49:20;97801.38;;;11.62;89.33
66547;BME280;53400;50.364;14.874;2023-03-24T02:51:59;97799.78;;;11.66;88.67
66547;BME280;53400;50.364;14.874;2023-03-24T02:54:36;97799.47;;;11.73;88.48
66547;BME280;53400;50.364;14.874;2023-03-24T02:57:11;97794.94;;;11.63;89.30
66547;BME280;53400;50.364;14.874;2023-03-24T02:59:42;97792.25;;;11.68;89.39
66547;BME280;53400;50.364;14.874;2023-03-24T03:02:13;97791.72;;;11.61;89.77
66547;BME280;53400;50.364;14.874;2023-03-24T03:04:43;97796.03;;;11.57;89.77
66547;BME280;53400;50.364;14.874;2023-03-24T03:07:11;97794.41;;;11.56;90.14
66547;BME280;53400;50.364;14.874;2023-03-24T03:09:46;97802.44;;;11.61;89.99
66547;BME280;53400;50.364;14.874;2023-03-24T03:12:17;97796.81;;;11.73;88.40
66547;BME280;53400;50.364;14.874;2023-03-24T03:14:47;97797.59;;;11.88;88.58
66547;BME280;53400;50.364;14.874;2023-03-24T03:17:17;97796.00;;;11.87;87.87
66547;BME280;53400;50.364;14.874;2023-03-24T03:19:46;97783.63;;;11.81;87.73
66547;BME280;53400;50.364;14.874;2023-03-24T03:22:19;97794.13;;;11.78;89.13
66547;BME280;53400;50.364;14.874;2023-03-24T03:24:48;97798.69;;;11.72;89.21
66547;BME280;53400;50.364;14.874;2023-03-24T03:27:21;97793.81;;;11.79;89.74
66547;BME280;53400;50.364;14.874;2023-03-24T03:29:53;97794.91;;;11.68;88.71
66547;BME280;53400;50.364;14.874;2023-03-24T03:32:24;97784.22;;;11.53;88.95
66547;BME280;53400;50.364;14.874;2023-03-24T03:34:55;97788.00;;;11.52;89.59
66547;BME280;53400;50.364;14.874;2023-03-24T03:37:27;97783.97;;;11.54;88.83
66547;BME280;53400;50.364;14.874;2023-03-24T03:39:57;97787.44;;;11.60;88.69
66547;BME280;53400;50.364;14.874;2023-03-24T03:42:25;97786.09;;;11.57;88.53
66547;BME280;53400;50.364;14.874;2023-03-24T03:44:52;97783.41;;;11.62;88.82
66547;BME280;53400;50.364;14.874;2023-03-24T03:47:18;97775.09;;;11.64;88.58
66547;BME280;53400;50.364;14.874;2023-03-24T03:49:45;97777.25;;;11.57;88.30
66547;BME280;53400;50.364;14.874;2023-03-24T03:52:12;97781.25;;;11.69;88.76
66547;BME280;53400;50.364;14.874;2023-03-24T03:54:39;97784.72;;;11.65;87.67
66547;BME280;53400;50.364;14.874;2023-03-24T03:57:06;97783.09;;;11.74;88.25
66547;BME280;53400;50.364;14.874;2023-03-24T03:59:35;97774.50;;;11.82;87.85
66547;BME280;53400;50.364;14.874;2023-03-24T04:02:12;97777.47;;;11.65;89.07
66547;BME280;53400;50.364;14.874;2023-03-24T04:05:00;97773.47;;;11.68;89.45
66547;BME280;53400;50.364;14.874;2023-03-24T04:07:35;97769.72;;;11.69;89.36
66547;BME280;53400;50.364;14.874;2023-03-24T04:10:11;97778.28;;;11.71;89.62
66547;BME280;53400;50.364;14.874;2023-03-24T04:12:58;97780.94;;;11.81;89.97
66547;BME280;53400;50.364;14.874;2023-03-24T04:15:43;97778.03;;;11.73;89.71
66547;BME280;53400;50.364;14.874;2023-03-24T04:18:31;97773.19;;;11.85;90.18
66547;BME280;53400;50.364;14.874;2023-03-24T04:21:22;97772.91;;;11.71;90.56
66547;BME280;53400;50.364;14.874;2023-03-24T04:24:08;97774.78;;;11.86;89.69
66547;BME280;53400;50.364;14.874;2023-03-24T04:26:47;97779.84;;;11.92;89.40
66547;BME280;53400;50.364;14.874;2023-03-24T04:29:25;97779.88;;;11.87;90.55
66547;BME280;53400;50.364;14.874;2023-03-24T04:32:00;97774.78;;;11.81;88.47
66547;BME280;53400;50.364;14.874;2023-03-24T04:34:32;97776.94;;;11.84;89.63
66547;BME280;53400;50.364;14.874;2023-03-24T04:37:04;97784.16;;;11.93;89.11
66547;BME280;53400;50.364;14.874;2023-03-24T04:39:35;97783.63;;;11.97;89.00
66547;BME280;53400;50.364;14.874;2023-03-24T04:42:07;97779.03;;;11.97;89.43
66547;BME280;53400;50.364;14.874;2023-03-24T04:44:35;97779.34;;;11.85;89.68
66547;BME280;53400;50.364;14.874;2023-03-24T04:47:03;97774.78;;;11.81;89.98
66547;BME280;53400;50.364;14.874;2023-03-24T04:49:30;97771.03;;;11.87;90.42
66547;BME280;53400;50.364;14.874;2023-03-24T04:51:57;97764.31;;;11.89;90.22
66547;BME280;53400;50.364;14.874;2023-03-24T04:54:23;97762.47;;;11.85;91.25
66547;BME280;53400;50.364;14.874;2023-03-24T04:56:50;97757.34;;;11.78;91.85
66547;BME280;53400;50.364;14.874;2023-03-24T04:59:16;97756.00;;;11.81;91.43
66547;BME280;53400;50.364;14.874;2023-03-24T05:01:44;97749.84;;;11.75;91.89
66547;BME280;53400;50.364;14.874;2023-03-24T05:04:18;97761.94;;;11.73;93.29
66547;BME280;53400;50.364;14.874;2023-03-24T05:06:45;97751.72;;;11.75;92.72
66547;BME280;53400;50.364;14.874;2023-03-24T05:09:12;97756.25;;;11.84;92.99
66547;BME280;53400;50.364;14.874;2023-03-24T05:11:37;97754.19;;;11.66;94.78
66547;BME280;53400;50.364;14.874;2023-03-24T05:14:05;97753.09;;;11.62;94.57
66547;BME280;53400;50.364;14.874;2023-03-24T05:16:30;97753.88;;;11.67;94.99
66547;BME280;53400;50.364;14.874;2023-03-24T05:18:56;97755.53;;;11.58;96.02
66547;BME280;53400;50.364;14.874;2023-03-24T05:21:24;97759.00;;;11.64;95.74
66547;BME280;53400;50.364;14.874;2023-03-24T05:23:50;97762.53;;;11.49;96.33
66547;BME280;53400;50.364;14.874;2023-03-24T05:26:16;97765.75;;;11.51;97.06
66547;BME280;53400;50.364;14.874;2023-03-24T05:28:42;97756.09;;;11.45;97.47
66547;BME280;53400;50.364;14.874;2023-03-24T05:31:08;97760.13;;;11.47;96.98
66547;BME280;53400;50.364;14.874;2023-03-24T05:33:34;97760.09;;;11.58;95.75
66547;BME280;53400;50.364;14.874;2023-03-24T05:36:00;97761.13;;;11.62;95.58
66547;BME280;53400;50.364;14.874;2023-03-24T05:38:28;97760.53;;;11.80;93.28
66547;BME280;53400;50.364;14.874;2023-03-24T05:40:55;97751.44;;;11.76;93.34
66547;BME280;53400;50.364;14.874;2023-03-24T05:43:21;97748.22;;;11.84;92.33
66547;BME280;53400;50.364;14.874;2023-03-24T05:45:47;97745.00;;;11.82;92.37
66547;BME280;53400;50.364;14.874;2023-03-24T05:48:13;97741.75;;;11.96;91.43
66547;BME280;53400;50.364;14.874;2023-03-24T05:50:39;97740.97;;;11.90;90.11
66547;BME280;53400;50.364;14.874;2023-03-24T05:53:05;97743.38;;;11.91;90.49
66547;BME280;53400;50.364;14.874;2023-03-24T05:55:34;97743.06;;;11.98;89.17
66547;BME280;53400;50.364;14.874;2023-03-24T05:58:00;97740.97;;;11.90;89.92
66547;BME280;53400;50.364;14.874;2023-03-24T06:00:29;97735.06;;;11.93;90.28
66547;BME280;53400;50.364;14.874;2023-03-24T06:02:57;97742.91;;;12.34;88.54
66547;BME280;53400;50.364;14.874;2023-03-24T06:05:23;97735.47;;;12.21;88.27
66547;BME280;53400;50.364;14.874;2023-03-24T06:07:49;97738.63;;;12.33;88.83
66547;BME280;53400;50.364;14.874;2023-03-24T06:10:15;97735.47;;;12.21;89.98
66547;BME280;53400;50.364;14.874;2023-03-24T06:12:44;97734.00;;;11.89;91.66
66547;BME280;53400;50.364;14.874;2023-03-24T06:15:11;97730.75;;;11.97;90.95
66547;BME280;53400;50.364;14.874;2023-03-24T06:17:42;97732.63;;;11.91;90.81
66547;BME280;53400;50.364;14.874;2023-03-24T06:20:10;97734.31;;;11.72;92.11
66547;BME280;53400;50.364;14.874;2023-03-24T06:22:41;97736.16;;;11.87;91.41
66547;BME280;53400;50.364;14.874;2023-03-24T06:25:09;97726.50;;;11.86;91.73
66547;BME280;53400;50.364;14.874;2023-03-24T06:27:35;97718.22;;;11.62;92.91
66547;BME280;53400;50.364;14.874;2023-03-24T06:30:03;97714.47;;;11.68;93.50
66547;BME280;53400;50.364;14.874;2023-03-24T06:32:29;97713.72;;;11.52;94.53
66547;BME280;53400;50.364;14.874;2023-03-24T06:34:55;97720.94;;;11.57;94.68
66547;BME280;53400;50.364;14.874;2023-03-24T06:37:21;97719.25;;;11.76;93.69
66547;BME280;53400;50.364;14.874;2023-03-24T06:39:47;97719.22;;;11.91;91.68
66547;BME280;53400;50.364;14.874;2023-03-24T06:42:13;97710.63;;;11.89;91.82
66547;BME280;53400;50.364;14.874;2023-03-24T06:44:39;97708.50;;;11.86;92.42
66547;BME280;53400;50.364;14.874;2023-03-24T06:47:06;97707.69;;;11.96;92.34
66547;BME280;53400;50.364;14.874;2023-03-24T06:49:32;97706.06;;;11.95;93.19
66547;BME280;53400;50.364;14.874;2023-03-24T06:51:59;97708.44;;;12.02;93.15
66547;BME280;53400;50.364;14.874;2023-03-24T06:54:26;97705.25;;;11.94;93.36
66547;BME280;53400;50.364;14.874;2023-03-24T06:56:53;97711.19;;;11.86;93.87
66547;BME280;53400;50.364;14.874;2023-03-24T06:59:19;97704.75;;;11.87;94.49
66547;BME280;53400;50.364;14.874;2023-03-24T07:01:48;97700.22;;;11.78;95.42
66547;BME280;53400;50.364;14.874;2023-03-24T07:04:15;97698.59;;;11.77;96.28
66547;BME280;53400;50.364;14.874;2023-03-24T07:06:41;97696.97;;;11.86;96.48
66547;BME280;53400;50.364;14.874;2023-03-24T07:09:08;97695.28;;;12.05;95.30
66547;BME280;53400;50.364;14.874;2023-03-24T07:11:33;97697.44;;;12.03;95.13
66547;BME280;53400;50.364;14.874;2023-03-24T07:13:59;97694.31;;;11.76;97.23
66547;BME280;53400;50.364;14.874;2023-03-24T07:16:25;97694.91;;;12.22;94.32
66547;BME280;53400;50.364;14.874;2023-03-24T07:18:51;97699.59;;;12.01;95.44
66547;BME280;53400;50.364;14.874;2023-03-24T07:21:18;97697.56;;;12.27;93.77
66547;BME280;53400;50.364;14.874;2023-03-24T07:23:44;97704.84;;;12.22;94.79
66547;BME280;53400;50.364;14.874;2023-03-24T07:26:10;97702.22;;;12.11;96.26
66547;BME280;53400;50.364;14.874;2023-03-24T07:28:36;97696.81;;;12.16;96.38
66547;BME280;53400;50.364;14.874;2023-03-24T07:31:02;97693.56;;;12.20;97.39
66547;BME280;53400;50.364;14.874;2023-03-24T07:33:28;97700.47;;;12.36;96.03
66547;BME280;53400;50.364;14.874;2023-03-24T07:35:56;97691.19;;;12.57;94.03
66547;BME280;53400;50.364;14.874;2023-03-24T07:38:23;97693.56;;;12.59;94.72
66547;BME280;53400;50.364;14.874;2023-03-24T07:40:49;97694.66;;;12.58;94.56
66547;BME280;53400;50.364;14.874;2023-03-24T07:43:15;97696.81;;;12.56;93.97
66547;BME280;53400;50.364;14.874;2023-03-24T07:45:43;97691.19;;;12.57;93.57
66547;BME280;53400;50.364;14.874;2023-03-24T07:48:08;97692.41;;;12.75;92.96
66547;BME280;53400;50.364;14.874;2023-03-24T07:50:34;97695.44;;;12.63;93.86
66547;BME280;53400;50.364;14.874;2023-03-24T07:53:00;97693.31;;;12.60;94.49
66547;BME280;53400;50.364;14.874;2023-03-24T07:55:27;97701.44;;;12.84;93.70
66547;BME280;53400;50.364;14.874;2023-03-24T07:57:53;97690.19;;;12.77;94.98
66547;BME280;53400;50.364;14.874;2023-03-24T08:00:21;97695.66;;;12.72;95.08
66547;BME280;53400;50.364;14.874;2023-03-24T08:02:50;97693.44;;;12.74;94.09
66547;BME280;53400;50.364;14.874;2023-03-24T08:05:17;97684.84;;;12.77;94.94
66547;BME280;53400;50.364;14.874;2023-03-24T08:07:45;97689.16;;;13.02;92.88
66547;BME280;53400;50.364;14.874;2023-03-24T08:10:22;97691.56;;;13.09;92.60
66547;BME280;53400;50.364;14.874;2023-03-24T08:12:53;97691.41;;;12.95;93.42
66547;BME280;53400;50.364;14.874;2023-03-24T08:15:19;97691.78;;;13.13;92.26
66547;BME280;53400;50.364;14.874;2023-03-24T08:17:46;97686.84;;;13.20;86.31
66547;BME280;53400;50.364;14.874;2023-03-24T08:20:13;97678.63;;;13.40;85.84
66547;BME280;53400;50.364;14.874;2023-03-24T08:22:39;97683.06;;;13.50;84.85
66547;BME280;53400;50.364;14.874;2023-03-24T08:25:06;97678.13;;;13.57;86.59
66547;BME280;53400;50.364;14.874;2023-03-24T08:27:33;97677.16;;;13.48;86.14
66547;BME280;53400;50.364;14.874;2023-03-24T08:30:00;97669.97;;;13.67;85.89
66547;BME280;53400;50.364;14.874;2023-03-24T08:32:26;97665.66;;;13.66;86.28
66547;BME280;53400;50.364;14.874;2023-03-24T08:34:52;97673.88;;;13.75;86.14
66547;BME280;53400;50.364;14.874;2023-03-24T08:37:18;97667.28;;;13.86;82.95
66547;BME280;53400;50.364;14.874;2023-03-24T08:39:44;97663.09;;;13.99;81.83
66547;BME280;53400;50.364;14.874;2023-03-24T08:42:11;97667.38;;;14.19;82.20
66547;BME280;53400;50.364;14.874;2023-03-24T08:44:37;97663.75;;;14.29;80.60
66547;BME280;53400;50.364;14.874;2023-03-24T08:47:04;97657.94;;;14.21;80.42
66547;BME280;53400;50.364;14.874;2023-03-24T08:49:30;97657.19;;;14.35;79.96
66547;BME280;53400;50.364;14.874;2023-03-24T08:51:56;97652.97;;;14.29;78.37
66547;BME280;53400;50.364;14.874;2023-03-24T08:54:22;97651.63;;;14.45;77.13
66547;BME280;53400;50.364;14.874;2023-03-24T08:56:52;97650.94;;;14.58;77.50
66547;BME280;53400;50.364;14.874;2023-03-24T08:59:18;97646.03;;;14.60;76.55
66547;BME280;53400;50.364;14.874;2023-03-24T09:01:44;97647.28;;;14.82;75.58
66547;BME280;53400;50.364;14.874;2023-03-24T09:04:12;97643.31;;;14.93;76.21
66547;BME280;53400;50.364;14.874;2023-03-24T09:06:37;97640.81;;;14.97;75.33
66547;BME280;53400;50.364;14.874;2023-03-24T09:09:03;97637.53;;;15.00;74.04
66547;BME280;53400;50.364;14.874;2023-03-24T09:11:29;97637.38;;;15.10;74.71
66547;BME280;53400;50.364;14.874;2023-03-24T09:13:55;97635.88;;;15.04;74.79
66547;BME280;53400;50.364;14.874;2023-03-24T09:16:21;97629.16;;;15.15;75.16
66547;BME280;53400;50.364;14.874;2023-03-24T09:18:48;97620.69;;;15.22;73.48
66547;BME280;53400;50.364;14.874;2023-03-24T09:21:15;97623.47;;;15.30;73.82
66547;BME280;53400;50.364;14.874;2023-03-24T09:23:41;97624.19;;;15.22;75.81
66547;BME280;53400;50.364;14.874;2023-03-24T09:26:07;97627.16;;;15.21;76.95
66547;BME280;53400;50.364;14.874;2023-03-24T09:28:33;97613.28;;;15.27;77.04
66547;BME280;53400;50.364;14.874;2023-03-24T09:31:00;97607.69;;;15.24;73.43
66547;BME280;53400;50.364;14.874;2023-03-24T09:33:26;97620.41;;;15.37;74.18
66547;BME280;53400;50.364;14.874;2023-03-24T09:35:54;97610.69;;;15.36;73.98
66547;BME280;53400;50.364;14.874;2023-03-24T09:38:22;97610.28;;;15.43;74.57
66547;BME280;53400;50.364;14.874;2023-03-24T09:40:52;97599.56;;;15.51;73.55
66547;BME280;53400;50.364;14.874;2023-03-24T09:43:25;97605.78;;;15.52;72.67
66547;BME280;53400;50.364;14.874;2023-03-24T09:45:54;97590.78;;;15.59;71.14
66547;BME280;53400;50.364;14.874;2023-03-24T09:48:27;97588.19;;;15.68;71.36
66547;BME280;53400;50.364;14.874;2023-03-24T09:50:58;97578.88;;;15.60;72.49
66547;BME280;53400;50.364;14.874;2023-03-24T09:53:31;97576.38;;;15.78;70.75
66547;BME280;53400;50.364;14.874;2023-03-24T09:56:05;97583.41;;;16.01;70.50
66547;BME280;53400;50.364;14.874;2023-03-24T09:58:36;97580.81;;;15.96;70.91
66547;BME280;53400;50.364;14.874;2023-03-24T10:01:11;97577.03;;;16.20;70.28
66547;BME280;53400;50.364;14.874;2023-03-24T10:03:38;97577.69;;;16.48;71.06
66547;BME280;53400;50.364;14.874;2023-03-24T10:06:07;97582.34;;;16.79;69.83
66547;BME280;53400;50.364;14.874;2023-03-24T10:08:40;97578.63;;;16.97;69.01
66547;BME280;53400;50.364;14.874;2023-03-24T10:11:12;97582.06;;;16.80;67.96
66547;BME280;53400;50.364;14.874;2023-03-24T10:13:51;97580.13;;;16.81;66.59
66547;BME280;53400;50.364;14.874;2023-03-24T10:16:26;97582.03;;;16.58;69.28
66547;BME280;53400;50.364;14.874;2023-03-24T10:18:58;97581.13;;;16.62;68.78
66547;BME280;53400;50.364;14.874;2023-03-24T10:21:26;97573.31;;;16.61;69.34
66547;BME280;53400;50.364;14.874;2023-03-24T10:24:02;97582.28;;;16.70;68.85
66547;BME280;53400;50.364;14.874;2023-03-24T10:26:38;97577.16;;;16.91;68.33
66547;BME280;53400;50.364;14.874;2023-03-24T10:29:21;97570.84;;;16.73;68.01
66547;BME280;53400;50.364;14.874;2023-03-24T10:31:51;97580.59;;;16.83;67.74
66547;BME280;53400;50.364;14.874;2023-03-24T10:34:18;97577.66;;;16.93;67.65
66547;BME280;53400;50.364;14.874;2023-03-24T10:36:46;97586.63;;;16.80;68.25
66547;BME280;53400;50.364;14.874;2023-03-24T10:39:15;97585.97;;;16.74;68.49
66547;BME280;53400;50.364;14.874;2023-03-24T10:41:42;97580.50;;;16.65;67.73
66547;BME280;53400;50.364;14.874;2023-03-24T10:44:09;97585.00;;;16.47;67.95
66547;BME280;53400;50.364;14.874;2023-03-24T10:46:44;97591.63;;;16.64;68.42
66547;BME280;53400;50.364;14.874;2023-03-24T10:49:16;97587.66;;;16.39;67.82
66547;BME280;53400;50.364;14.874;2023-03-24T10:51:45;97590.41;;;16.47;68.42
66547;BME280;53400;50.364;14.874;2023-03-24T10:54:16;97592.63;;;16.23;70.25
66547;BME280;53400;50.364;14.874;2023-03-24T10:56:45;97588.75;;;15.93;68.99
66547;BME280;53400;50.364;14.874;2023-03-24T10:59:30;97601.88;;;15.86;70.01
66547;BME280;53400;50.364;14.874;2023-03-24T11:02:11;97592.91;;;15.76;69.57
66547;BME280;53400;50.364;14.874;2023-03-24T11:04:44;97585.28;;;15.78;70.73
66547;BME280;53400;50.364;14.874;2023-03-24T11:07:15;97583.38;;;15.79;70.08
66547;BME280;53400;50.364;14.874;2023-03-24T11:09:45;97586.00;;;15.70;70.51
66547;BME280;53400;50.364;14.874;2023-03-24T11:12:21;97585.78;;;15.80;71.39
66547;BME280;53400;50.364;14.874;2023-03-24T11:14:48;97575.22;;;15.70;71.62
66547;BME280;53400;50.364;14.874;2023-03-24T11:17:14;97583.59;;;15.69;71.99
66547;BME280;53400;50.364;14.874;2023-03-24T11:19:49;97584.47;;;15.64;71.73
66547;BME280;53400;50.364;14.874;2023-03-24T11:22:17;97586.06;;;15.65;71.14
66547;BME280;53400;50.364;14.874;2023-03-24T11:24:47;97577.09;;;15.70;72.16
66547;BME280;53400;50.364;14.874;2023-03-24T11:27:14;97587.88;;;15.70;72.37
66547;BME280;53400;50.364;14.874;2023-03-24T11:29:47;97597.09;;;15.69;72.31
66547;BME280;53400;50.364;14.874;2023-03-24T11:32:17;97595.38;;;15.73;72.77
66547;BME280;53400;50.364;14.874;2023-03-24T11:34:48;97584.47;;;15.64;74.54
66547;BME280;53400;50.364;14.874;2023-03-24T11:37:18;97581.88;;;15.73;74.12
66547;BME280;53400;50.364;14.874;2023-03-24T11:40:04;97578.00;;;16.01;73.52
66547;BME280;53400;50.364;14.874;2023-03-24T11:42:41;97590.91;;;16.04;73.86
66547;BME280;53400;50.364;14.874;2023-03-24T11:45:20;97596.88;;;16.38;73.12
66547;BME280;53400;50.364;14.874;2023-03-24T11:47:47;97598.47;;;16.39;72.86
66547;BME280;53400;50.364;14.874;2023-03-24T11:50:18;97603.44;;;16.45;72.14
66547;BME280;53400;50.364;14.874;2023-03-24T11:52:49;97598.69;;;16.51;72.27
66547;BME280;53400;50.364;14.874;2023-03-24T11:55:23;97597.66;;;16.61;72.83
66547;BME280;53400;50.364;14.874;2023-03-24T11:57:55;97598.50;;;16.70;71.40
66547;BME280;53400;50.364;14.874;2023-03-24T12:00:30;97603.91;;;16.70;70.54
66547;BME280;53400;50.364;14.874;2023-03-24T12:03:09;97601.47;;;16.60;71.16
66547;BME280;53400;50.364;14.874;2023-03-24T12:05:42;97598.81;;;16.46;72.48
66547;BME280;53400;50.364;14.874;2023-03-24T12:08:25;97597.97;;;16.14;72.44
66547;BME280;53400;50.364;14.874;2023-03-24T12:11:10;97600.34;;;16.16;73.91
66547;BME280;53400;50.364;14.874;2023-03-24T12:13:40;97592.56;;;16.14;73.74
66547;BME280;53400;50.364;14.874;2023-03-24T12:16:32;97593.97;;;16.12;70.78
66547;BME280;53400;50.364;14.874;2023-03-24T12:21:59;97581.97;;;15.81;69.76
66547;BME280;53400;50.364;14.874;2023-03-24T12:24:42;97591.47;;;15.79;69.90
66547;BME280;53400;50.364;14.874;2023-03-24T12:27:20;97595.25;;;15.92;70.57
66547;BME280;53400;50.364;14.874;2023-03-24T12:29:58;97595.47;;;15.81;70.56
66547;BME280;53400;50.364;14.874;2023-03-24T12:32:35;97578.31;;;15.50;70.40
66547;BME280;53400;50.364;14.874;2023-03-24T12:35:26;97583.19;;;15.75;70.20
66547;BME280;53400;50.364;14.874;2023-03-24T12:38:10;97580.56;;;15.84;70.59
66547;BME280;53400;50.364;14.874;2023-03-24T12:40:53;97579.72;;;15.97;70.13
66547;BME280;53400;50.364;14.874;2023-03-24T12:43:29;97581.94;;;15.95;70.61
66547;BME280;53400;50.364;14.874;2023-03-24T12:46:03;97576.53;;;15.95;70.45
66547;BME280;53400;50.364;14.874;2023-03-24T12:48:50;97574.66;;;15.82;70.76
66547;BME280;53400;50.364;14.874;2023-03-24T12:51:29;97573.09;;;15.67;71.57
66547;BME280;53400;50.364;14.874;2023-03-24T12:54:12;97570.56;;;15.85;70.39
66547;BME280;53400;50.364;14.874;2023-03-24T12:56:51;97569.97;;;15.60;71.84
66547;BME280;53400;50.364;14.874;2023-03-24T12:59:27;97573.09;;;15.53;71.99
66547;BME280;53400;50.364;14.874;2023-03-24T13:02:00;97572.88;;;15.64;71.32
66547;BME280;53400;50.364;14.874;2023-03-24T13:04:29;97562.41;;;15.62;71.89
66547;BME280;53400;50.364;14.874;2023-03-24T13:07:00;97555.88;;;15.63;70.72
66547;BME280;53400;50.364;14.874;2023-03-24T13:09:35;97552.22;;;15.59;70.86
66547;BME280;53400;50.364;14.874;2023-03-24T13:12:10;97548.81;;;15.53;71.03
66547;BME280;53400;50.364;14.874;2023-03-24T13:14:47;97557.00;;;15.62;70.91